sensor_id;sensor_type;location;lat;lon;timestamp;P1;durP1;ratioP1;P2;durP2;ratioP2
14883;SDS011;7534;50.762;7.000;2022-09-29T00:02:11;10.10;;;5.70;;
14883;SDS011;7534;50.762;7.000;2022-09-29T00:04:36;8.63;;;6.10;;
14883;SDS011;7534;50.762;7.000;2022-09-29T00:07:02;7.90;;;6.00;;
14883;SDS011;7534;50.762;7.000;2022-09-29T00:09:28;7.97;;;6.87;;
14883;SDS011;7534;50.762;7.000;2022-09-29T00:11:54;8.93;;;5.93;;
14883;SDS011;7534;50.762;7.000;2022-09-29T00:14:21;9.83;;;6.00;;
14883;SDS011;7534;50.762;7.000;2022-09-29T00:16:48;6.40;;;5.80;;
14883;SDS011;7534;50.762;7.000;2022-09-29T00:19:14;7.27;;;5.67;;
14883;SDS011;7534;50.762;7.000;2022-09-29T00:21:40;7.60;;;6.27;;
14883;SDS011;7534;50.762;7.000;2022-09-29T00:24:06;8.37;;;6.63;;
14883;SDS011;7534;50.762;7.000;2022-09-29T00:26:32;7.80;;;5.73;;
14883;SDS011;7534;50.762;7.000;2022-09-29T00:28:58;6.67;;;6.00;;
14883;SDS011;7534;50.762;7.000;2022-09-29T00:31:25;7.40;;;5.93;;
14883;SDS011;7534;50.762;7.000;2022-09-29T00:33:55;7.37;;;5.77;;
14883;SDS011;7534;50.762;7.000;2022-09-29T00:36:22;9.13;;;6.50;;
14883;SDS011;7534;50.762;7.000;2022-09-29T00:38:49;9.23;;;6.90;;
14883;SDS011;7534;50.762;7.000;2022-09-29T00:41:20;7.70;;;6.47;;
14883;SDS011;7534;50.762;7.000;2022-09-29T00:43:54;8.80;;;6.87;;
14883;SDS011;7534;50.762;7.000;2022-09-29T00:49:48;10.37;;;7.30;;
14883;SDS011;7534;50.762;7.000;2022-09-29T00:52:31;10.50;;;7.30;;
14883;SDS011;7534;50.762;7.000;2022-09-29T00:55:05;9.83;;;7.13;;
14883;SDS011;7534;50.762;7.000;2022-09-29T00:57:42;8.43;;;7.17;;
14883;SDS011;7534;50.762;7.000;2022-09-29T01:00:18;11.30;;;7.30;;
14883;SDS011;7534;50.762;7.000;2022-09-29T01:02:46;12.87;;;7.60;;
14883;SDS011;7534;50.762;7.000;2022-09-29T01:05:21;9.80;;;7.90;;
14883;SDS011;7534;50.762;7.000;2022-09-29T01:07:54;8.47;;;7.57;;
14883;SDS011;7534;50.762;7.000;2022-09-29T01:10:20;10.07;;;7.37;;
14883;SDS011;7534;50.762;7.000;2022-09-29T01:12:47;12.80;;;8.17;;
14883;SDS011;7534;50.762;7.000;2022-09-29T01:15:14;11.53;;;8.30;;
14883;SDS011;7534;50.762;7.000;2022-09-29T01:17:43;11.73;;;8.27;;
14883;SDS011;7534;50.762;7.000;2022-09-29T01:20:12;9.93;;;7.30;;
14883;SDS011;7534;50.762;7.000;2022-09-29T01:29:24;11.83;;;8.43;;
14883;SDS011;7534;50.762;7.000;2022-09-29T01:32:59;12.53;;;9.10;;
14883;SDS011;7534;50.762;7.000;2022-09-29T01:36:02;12.90;;;8.63;;
14883;SDS011;7534;50.762;7.000;2022-09-29T01:38:39;16.07;;;8.37;;
14883;SDS011;7534;50.762;7.000;2022-09-29T01:41:27;14.00;;;8.53;;
14883;SDS011;7534;50.762;7.000;2022-09-29T01:46:58;10.73;;;8.53;;
14883;SDS011;7534;50.762;7.000;2022-09-29T01:49:44;11.67;;;8.37;;
14883;SDS011;7534;50.762;7.000;2022-09-29T01:52:20;11.17;;;8.23;;
14883;SDS011;7534;50.762;7.000;2022-09-29T01:54:52;11.87;;;7.93;;
14883;SDS011;7534;50.762;7.000;2022-09-29T01:57:37;10.27;;;7.90;;
14883;SDS011;7534;50.762;7.000;2022-09-29T02:00:15;13.40;;;8.63;;
14883;SDS011;7534;50.762;7.000;2022-09-29T02:02:49;11.70;;;8.47;;
14883;SDS011;7534;50.762;7.000;2022-09-29T02:05:32;11.43;;;7.90;;
14883;SDS011;7534;50.762;7.000;2022-09-29T02:08:15;11.73;;;8.10;;
14883;SDS011;7534;50.762;7.000;2022-09-29T02:11:10;13.27;;;8.73;;
14883;SDS011;7534;50.762;7.000;2022-09-29T02:13:53;10.87;;;7.67;;
14883;SDS011;7534;50.762;7.000;2022-09-29T02:16:25;12.30;;;7.67;;
14883;SDS011;7534;50.762;7.000;2022-09-29T02:19:03;10.80;;;7.87;;
14883;SDS011;7534;50.762;7.000;2022-09-29T02:21:41;12.37;;;7.93;;
14883;SDS011;7534;50.762;7.000;2022-09-29T02:24:08;11.07;;;7.77;;
14883;SDS011;7534;50.762;7.000;2022-09-29T02:26:36;8.37;;;7.00;;
14883;SDS011;7534;50.762;7.000;2022-09-29T02:29:02;11.97;;;8.33;;
14883;SDS011;7534;50.762;7.000;2022-09-29T02:31:30;11.90;;;7.57;;
14883;SDS011;7534;50.762;7.000;2022-09-29T02:33:58;12.50;;;8.47;;
14883;SDS011;7534;50.762;7.000;2022-09-29T02:38:56;9.77;;;8.07;;
14883;SDS011;7534;50.762;7.000;2022-09-29T02:41:40;12.80;;;9.17;;
14883;SDS011;7534;50.762;7.000;2022-09-29T02:51:09;11.43;;;7.67;;
14883;SDS011;7534;50.762;7.000;2022-09-29T03:00:00;11.10;;;7.73;;
14883;SDS011;7534;50.762;7.000;2022-09-29T03:02:38;11.20;;;7.47;;
14883;SDS011;7534;50.762;7.000;2022-09-29T03:05:10;11.47;;;7.93;;
14883;SDS011;7534;50.762;7.000;2022-09-29T03:07:41;8.80;;;7.30;;
14883;SDS011;7534;50.762;7.000;2022-09-29T03:10:07;11.30;;;8.20;;
14883;SDS011;7534;50.762;7.000;2022-09-29T03:12:34;9.80;;;7.23;;
14883;SDS011;7534;50.762;7.000;2022-09-29T03:15:00;11.10;;;7.77;;
14883;SDS011;7534;50.762;7.000;2022-09-29T03:17:26;9.70;;;7.57;;
14883;SDS011;7534;50.762;7.000;2022-09-29T03:19:52;9.43;;;7.73;;
14883;SDS011;7534;50.762;7.000;2022-09-29T03:22:17;8.67;;;6.97;;
14883;SDS011;7534;50.762;7.000;2022-09-29T03:24:45;12.10;;;7.97;;
14883;SDS011;7534;50.762;7.000;2022-09-29T03:27:11;12.97;;;7.97;;
14883;SDS011;7534;50.762;7.000;2022-09-29T03:29:37;9.70;;;7.40;;
14883;SDS011;7534;50.762;7.000;2022-09-29T03:32:03;12.00;;;7.77;;
14883;SDS011;7534;50.762;7.000;2022-09-29T03:34:29;10.17;;;8.07;;
14883;SDS011;7534;50.762;7.000;2022-09-29T03:36:56;16.67;;;8.50;;
14883;SDS011;7534;50.762;7.000;2022-09-29T03:39:22;10.37;;;7.77;;
14883;SDS011;7534;50.762;7.000;2022-09-29T03:41:49;11.53;;;8.27;;
14883;SDS011;7534;50.762;7.000;2022-09-29T03:44:14;10.80;;;8.97;;
14883;SDS011;7534;50.762;7.000;2022-09-29T03:46:41;12.77;;;8.53;;
14883;SDS011;7534;50.762;7.000;2022-09-29T03:49:08;12.00;;;8.53;;
14883;SDS011;7534;50.762;7.000;2022-09-29T03:51:35;11.63;;;8.03;;
14883;SDS011;7534;50.762;7.000;2022-09-29T03:54:02;9.93;;;8.33;;
14883;SDS011;7534;50.762;7.000;2022-09-29T03:56:27;13.40;;;9.57;;
14883;SDS011;7534;50.762;7.000;2022-09-29T03:58:53;13.37;;;9.70;;
14883;SDS011;7534;50.762;7.000;2022-09-29T04:01:19;10.80;;;8.90;;
14883;SDS011;7534;50.762;7.000;2022-09-29T04:03:45;10.10;;;8.17;;
14883;SDS011;7534;50.762;7.000;2022-09-29T04:06:11;13.63;;;7.87;;
14883;SDS011;7534;50.762;7.000;2022-09-29T04:08:36;11.23;;;8.90;;
14883;SDS011;7534;50.762;7.000;2022-09-29T04:11:03;12.13;;;9.00;;
14883;SDS011;7534;50.762;7.000;2022-09-29T04:13:30;10.47;;;8.40;;
14883;SDS011;7534;50.762;7.000;2022-09-29T04:15:56;13.53;;;8.97;;
14883;SDS011;7534;50.762;7.000;2022-09-29T04:18:31;14.10;;;8.63;;
14883;SDS011;7534;50.762;7.000;2022-09-29T04:20:58;12.63;;;9.23;;
14883;SDS011;7534;50.762;7.000;2022-09-29T04:23:29;12.50;;;9.67;;
14883;SDS011;7534;50.762;7.000;2022-09-29T04:25:55;15.97;;;9.77;;
14883;SDS011;7534;50.762;7.000;2022-09-29T04:28:22;19.70;;;14.50;;
14883;SDS011;7534;50.762;7.000;2022-09-29T04:30:49;16.80;;;13.20;;
14883;SDS011;7534;50.762;7.000;2022-09-29T04:33:15;14.63;;;11.67;;
14883;SDS011;7534;50.762;7.000;2022-09-29T04:35:40;14.17;;;10.70;;
14883;SDS011;7534;50.762;7.000;2022-09-29T04:38:06;14.63;;;10.63;;
14883;SDS011;7534;50.762;7.000;2022-09-29T04:40:33;11.97;;;9.50;;
14883;SDS011;7534;50.762;7.000;2022-09-29T04:43:00;14.47;;;10.90;;
14883;SDS011;7534;50.762;7.000;2022-09-29T04:45:26;13.57;;;10.40;;
14883;SDS011;7534;50.762;7.000;2022-09-29T04:47:52;14.63;;;10.33;;
14883;SDS011;7534;50.762;7.000;2022-09-29T04:50:18;15.23;;;11.10;;
14883;SDS011;7534;50.762;7.000;2022-09-29T04:52:44;14.83;;;10.57;;
14883;SDS011;7534;50.762;7.000;2022-09-29T04:55:10;14.10;;;10.07;;
14883;SDS011;7534;50.762;7.000;2022-09-29T04:57:36;15.50;;;10.20;;
14883;SDS011;7534;50.762;7.000;2022-09-29T05:00:05;13.27;;;9.97;;
14883;SDS011;7534;50.762;7.000;2022-09-29T05:02:32;15.13;;;10.90;;
14883;SDS011;7534;50.762;7.000;2022-09-29T05:04:58;12.60;;;9.07;;
14883;SDS011;7534;50.762;7.000;2022-09-29T05:07:24;14.57;;;9.80;;
14883;SDS011;7534;50.762;7.000;2022-09-29T05:09:50;12.67;;;10.33;;
14883;SDS011;7534;50.762;7.000;2022-09-29T05:12:16;13.63;;;9.57;;
14883;SDS011;7534;50.762;7.000;2022-09-29T05:14:41;15.87;;;10.13;;
14883;SDS011;7534;50.762;7.000;2022-09-29T05:17:07;12.07;;;9.17;;
14883;SDS011;7534;50.762;7.000;2022-09-29T05:19:33;14.47;;;10.17;;
14883;SDS011;7534;50.762;7.000;2022-09-29T05:21:59;14.10;;;10.60;;
14883;SDS011;7534;50.762;7.000;2022-09-29T05:24:26;14.17;;;10.47;;
14883;SDS011;7534;50.762;7.000;2022-09-29T05:26:52;14.57;;;10.57;;
14883;SDS011;7534;50.762;7.000;2022-09-29T05:29:18;15.13;;;11.20;;
14883;SDS011;7534;50.762;7.000;2022-09-29T05:31:44;13.60;;;10.17;;
14883;SDS011;7534;50.762;7.000;2022-09-29T05:34:10;18.17;;;10.80;;
14883;SDS011;7534;50.762;7.000;2022-09-29T05:36:36;13.30;;;9.60;;
14883;SDS011;7534;50.762;7.000;2022-09-29T05:39:02;13.27;;;10.23;;
14883;SDS011;7534;50.762;7.000;2022-09-29T05:41:29;14.00;;;9.30;;
14883;SDS011;7534;50.762;7.000;2022-09-29T05:43:54;16.03;;;9.97;;
14883;SDS011;7534;50.762;7.000;2022-09-29T05:46:21;14.27;;;10.40;;
14883;SDS011;7534;50.762;7.000;2022-09-29T05:48:47;15.80;;;9.63;;
14883;SDS011;7534;50.762;7.000;2022-09-29T05:51:18;13.20;;;9.43;;
14883;SDS011;7534;50.762;7.000;2022-09-29T05:53:47;14.57;;;9.77;;
14883;SDS011;7534;50.762;7.000;2022-09-29T05:56:18;14.73;;;9.30;;
14883;SDS011;7534;50.762;7.000;2022-09-29T05:58:47;13.90;;;10.47;;
14883;SDS011;7534;50.762;7.000;2022-09-29T06:01:17;15.60;;;10.63;;
14883;SDS011;7534;50.762;7.000;2022-09-29T06:03:46;17.67;;;12.20;;
14883;SDS011;7534;50.762;7.000;2022-09-29T06:06:16;16.17;;;12.00;;
14883;SDS011;7534;50.762;7.000;2022-09-29T06:08:45;18.30;;;14.00;;
14883;SDS011;7534;50.762;7.000;2022-09-29T06:13:45;14.73;;;11.67;;
14883;SDS011;7534;50.762;7.000;2022-09-29T06:16:13;16.83;;;13.50;;
14883;SDS011;7534;50.762;7.000;2022-09-29T06:18:42;17.63;;;14.10;;
14883;SDS011;7534;50.762;7.000;2022-09-29T06:21:12;20.80;;;14.33;;
14883;SDS011;7534;50.762;7.000;2022-09-29T06:23:47;17.60;;;13.00;;
14883;SDS011;7534;50.762;7.000;2022-09-29T06:26:14;14.47;;;11.63;;
14883;SDS011;7534;50.762;7.000;2022-09-29T06:28:42;16.07;;;12.20;;
14883;SDS011;7534;50.762;7.000;2022-09-29T06:31:09;15.73;;;13.03;;
14883;SDS011;7534;50.762;7.000;2022-09-29T06:33:38;16.67;;;12.93;;
14883;SDS011;7534;50.762;7.000;2022-09-29T06:36:11;17.73;;;13.03;;
14883;SDS011;7534;50.762;7.000;2022-09-29T06:39:09;13.17;;;11.77;;
14883;SDS011;7534;50.762;7.000;2022-09-29T06:41:38;10.37;;;9.37;;
14883;SDS011;7534;50.762;7.000;2022-09-29T06:44:04;9.37;;;8.43;;
14883;SDS011;7534;50.762;7.000;2022-09-29T06:46:30;8.73;;;7.87;;
14883;SDS011;7534;50.762;7.000;2022-09-29T06:48:56;8.47;;;7.57;;
14883;SDS011;7534;50.762;7.000;2022-09-29T06:51:22;8.03;;;7.23;;
14883;SDS011;7534;50.762;7.000;2022-09-29T06:53:49;7.57;;;6.60;;
14883;SDS011;7534;50.762;7.000;2022-09-29T06:56:16;7.17;;;6.07;;
14883;SDS011;7534;50.762;7.000;2022-09-29T06:58:43;6.23;;;5.70;;
14883;SDS011;7534;50.762;7.000;2022-09-29T07:01:10;6.63;;;5.60;;
14883;SDS011;7534;50.762;7.000;2022-09-29T07:03:36;5.00;;;4.60;;
14883;SDS011;7534;50.762;7.000;2022-09-29T07:06:03;5.27;;;4.83;;
14883;SDS011;7534;50.762;7.000;2022-09-29T07:08:31;5.37;;;4.87;;
14883;SDS011;7534;50.762;7.000;2022-09-29T07:11:00;6.10;;;4.73;;
14883;SDS011;7534;50.762;7.000;2022-09-29T07:13:27;5.43;;;4.93;;
14883;SDS011;7534;50.762;7.000;2022-09-29T07:15:54;7.77;;;4.83;;
14883;SDS011;7534;50.762;7.000;2022-09-29T07:18:19;6.90;;;4.83;;
14883;SDS011;7534;50.762;7.000;2022-09-29T07:20:45;4.93;;;4.53;;
14883;SDS011;7534;50.762;7.000;2022-09-29T07:23:11;5.15;;;4.68;;
14883;SDS011;7534;50.762;7.000;2022-09-29T07:25:37;4.53;;;4.13;;
14883;SDS011;7534;50.762;7.000;2022-09-29T07:28:03;6.05;;;5.05;;
14883;SDS011;7534;50.762;7.000;2022-09-29T07:30:29;4.78;;;3.83;;
14883;SDS011;7534;50.762;7.000;2022-09-29T07:32:55;4.18;;;3.50;;
14883;SDS011;7534;50.762;7.000;2022-09-29T07:35:22;4.20;;;3.30;;
14883;SDS011;7534;50.762;7.000;2022-09-29T07:37:51;5.05;;;4.00;;
14883;SDS011;7534;50.762;7.000;2022-09-29T07:40:21;5.70;;;4.13;;
14883;SDS011;7534;50.762;7.000;2022-09-29T07:42:48;3.60;;;3.30;;
14883;SDS011;7534;50.762;7.000;2022-09-29T07:45:15;4.85;;;3.08;;
14883;SDS011;7534;50.762;7.000;2022-09-29T07:47:41;5.82;;;3.65;;
14883;SDS011;7534;50.762;7.000;2022-09-29T07:50:07;3.50;;;3.20;;
14883;SDS011;7534;50.762;7.000;2022-09-29T07:52:34;5.05;;;3.10;;
14883;SDS011;7534;50.762;7.000;2022-09-29T07:55:00;3.20;;;2.80;;
14883;SDS011;7534;50.762;7.000;2022-09-29T07:57:26;3.72;;;3.10;;
14883;SDS011;7534;50.762;7.000;2022-09-29T07:59:52;3.40;;;3.10;;
14883;SDS011;7534;50.762;7.000;2022-09-29T08:02:18;4.18;;;3.88;;
14883;SDS011;7534;50.762;7.000;2022-09-29T08:04:46;5.10;;;4.65;;
14883;SDS011;7534;50.762;7.000;2022-09-29T08:07:12;5.18;;;4.70;;
14883;SDS011;7534;50.762;7.000;2022-09-29T08:09:37;4.35;;;3.97;;
14883;SDS011;7534;50.762;7.000;2022-09-29T08:12:03;3.65;;;3.35;;
14883;SDS011;7534;50.762;7.000;2022-09-29T08:14:29;5.07;;;4.53;;
14883;SDS011;7534;50.762;7.000;2022-09-29T08:16:54;5.28;;;4.78;;
14883;SDS011;7534;50.762;7.000;2022-09-29T08:19:20;5.40;;;4.90;;
14883;SDS011;7534;50.762;7.000;2022-09-29T08:21:46;5.30;;;4.80;;
14883;SDS011;7534;50.762;7.000;2022-09-29T08:24:13;5.15;;;4.65;;
14883;SDS011;7534;50.762;7.000;2022-09-29T08:26:41;4.40;;;3.97;;
14883;SDS011;7534;50.762;7.000;2022-09-29T08:29:08;4.90;;;4.50;;
14883;SDS011;7534;50.762;7.000;2022-09-29T08:31:35;5.53;;;4.70;;
14883;SDS011;7534;50.762;7.000;2022-09-29T08:34:01;5.55;;;5.05;;
14883;SDS011;7534;50.762;7.000;2022-09-29T08:36:27;5.32;;;4.70;;
14883;SDS011;7534;50.762;7.000;2022-09-29T08:38:53;4.88;;;4.47;;
14883;SDS011;7534;50.762;7.000;2022-09-29T08:47:23;4.50;;;4.10;;
14883;SDS011;7534;50.762;7.000;2022-09-29T08:52:37;4.88;;;4.38;;
14883;SDS011;7534;50.762;7.000;2022-09-29T08:57:43;4.70;;;4.40;;
14883;SDS011;7534;50.762;7.000;2022-09-29T09:00:12;4.70;;;4.30;;
14883;SDS011;7534;50.762;7.000;2022-09-29T09:06:06;5.78;;;4.30;;
14883;SDS011;7534;50.762;7.000;2022-09-29T09:08:55;4.80;;;4.35;;
14883;SDS011;7534;50.762;7.000;2022-09-29T09:21:07;4.00;;;3.70;;
14883;SDS011;7534;50.762;7.000;2022-09-29T09:23:53;3.50;;;3.20;;
14883;SDS011;7534;50.762;7.000;2022-09-29T09:26:32;3.90;;;3.55;;
14883;SDS011;7534;50.762;7.000;2022-09-29T09:29:15;3.80;;;3.40;;
14883;SDS011;7534;50.762;7.000;2022-09-29T09:31:56;4.20;;;3.80;;
14883;SDS011;7534;50.762;7.000;2022-09-29T09:34:45;4.80;;;4.13;;
14883;SDS011;7534;50.762;7.000;2022-09-29T09:37:28;4.43;;;4.03;;
14883;SDS011;7534;50.762;7.000;2022-09-29T09:42:51;4.10;;;3.55;;
14883;SDS011;7534;50.762;7.000;2022-09-29T09:45:48;4.03;;;3.70;;
14883;SDS011;7534;50.762;7.000;2022-09-29T09:48:29;4.00;;;3.70;;
14883;SDS011;7534;50.762;7.000;2022-09-29T09:54:41;4.10;;;3.80;;
14883;SDS011;7534;50.762;7.000;2022-09-29T10:01:05;7.13;;;4.90;;
14883;SDS011;7534;50.762;7.000;2022-09-29T10:03:32;5.72;;;4.55;;
14883;SDS011;7534;50.762;7.000;2022-09-29T10:06:03;5.67;;;5.17;;
14883;SDS011;7534;50.762;7.000;2022-09-29T10:08:32;6.40;;;5.80;;
14883;SDS011;7534;50.762;7.000;2022-09-29T10:11:19;6.65;;;5.82;;
14883;SDS011;7534;50.762;7.000;2022-09-29T10:13:56;5.93;;;5.32;;
14883;SDS011;7534;50.762;7.000;2022-09-29T10:16:58;6.60;;;5.27;;
14883;SDS011;7534;50.762;7.000;2022-09-29T10:22:31;6.20;;;5.60;;
14883;SDS011;7534;50.762;7.000;2022-09-29T10:31:40;6.93;;;5.93;;
14883;SDS011;7534;50.762;7.000;2022-09-29T10:34:38;5.73;;;5.10;;
14883;SDS011;7534;50.762;7.000;2022-09-29T10:43:36;5.43;;;4.50;;
14883;SDS011;7534;50.762;7.000;2022-09-29T10:49:31;4.47;;;4.07;;
14883;SDS011;7534;50.762;7.000;2022-09-29T10:55:29;4.93;;;4.10;;
14883;SDS011;7534;50.762;7.000;2022-09-29T10:58:00;4.17;;;3.80;;
14883;SDS011;7534;50.762;7.000;2022-09-29T11:00:46;4.38;;;3.50;;
14883;SDS011;7534;50.762;7.000;2022-09-29T11:03:18;5.10;;;3.90;;
14883;SDS011;7534;50.762;7.000;2022-09-29T11:05:54;4.03;;;3.60;;
14883;SDS011;7534;50.762;7.000;2022-09-29T11:08:55;5.90;;;4.32;;
14883;SDS011;7534;50.762;7.000;2022-09-29T11:14:01;8.88;;;4.13;;
14883;SDS011;7534;50.762;7.000;2022-09-29T11:19:03;4.75;;;3.47;;
14883;SDS011;7534;50.762;7.000;2022-09-29T11:24:12;4.45;;;3.78;;
14883;SDS011;7534;50.762;7.000;2022-09-29T11:30:34;5.03;;;3.65;;
14883;SDS011;7534;50.762;7.000;2022-09-29T11:39:44;4.20;;;3.80;;
14883;SDS011;7534;50.762;7.000;2022-09-29T11:45:47;4.43;;;3.15;;
14883;SDS011;7534;50.762;7.000;2022-09-29T11:54:21;3.40;;;2.70;;
14883;SDS011;7534;50.762;7.000;2022-09-29T12:00:15;2.80;;;2.50;;
14883;SDS011;7534;50.762;7.000;2022-09-29T12:06:06;4.93;;;2.30;;
14883;SDS011;7534;50.762;7.000;2022-09-29T12:09:29;2.88;;;2.10;;
14883;SDS011;7534;50.762;7.000;2022-09-29T12:12:20;2.63;;;1.80;;
14883;SDS011;7534;50.762;7.000;2022-09-29T12:17:59;3.37;;;1.80;;
14883;SDS011;7534;50.762;7.000;2022-09-29T12:20:37;3.97;;;2.27;;
14883;SDS011;7534;50.762;7.000;2022-09-29T12:23:12;3.57;;;2.10;;
14883;SDS011;7534;50.762;7.000;2022-09-29T12:25:47;3.10;;;2.20;;
14883;SDS011;7534;50.762;7.000;2022-09-29T12:32:08;2.40;;;1.90;;
14883;SDS011;7534;50.762;7.000;2022-09-29T12:34:55;2.73;;;1.70;;
14883;SDS011;7534;50.762;7.000;2022-09-29T12:40:23;2.85;;;1.60;;
14883;SDS011;7534;50.762;7.000;2022-09-29T12:43:08;3.50;;;1.88;;
14883;SDS011;7534;50.762;7.000;2022-09-29T12:45:57;2.83;;;1.80;;
14883;SDS011;7534;50.762;7.000;2022-09-29T12:55:57;2.13;;;1.63;;
14883;SDS011;7534;50.762;7.000;2022-09-29T12:58:52;2.25;;;2.00;;
14883;SDS011;7534;50.762;7.000;2022-09-29T13:01:44;2.58;;;1.73;;
14883;SDS011;7534;50.762;7.000;2022-09-29T13:10:32;1.60;;;1.38;;
14883;SDS011;7534;50.762;7.000;2022-09-29T13:16:15;2.20;;;1.90;;
14883;SDS011;7534;50.762;7.000;2022-09-29T13:19:16;3.50;;;1.75;;
14883;SDS011;7534;50.762;7.000;2022-09-29T13:25:36;2.08;;;1.40;;
14883;SDS011;7534;50.762;7.000;2022-09-29T13:28:32;1.85;;;1.48;;
14883;SDS011;7534;50.762;7.000;2022-09-29T13:31:19;2.25;;;1.60;;
14883;SDS011;7534;50.762;7.000;2022-09-29T13:33:51;1.50;;;1.40;;
14883;SDS011;7534;50.762;7.000;2022-09-29T13:36:23;2.50;;;1.70;;
14883;SDS011;7534;50.762;7.000;2022-09-29T13:38:55;2.85;;;1.50;;
14883;SDS011;7534;50.762;7.000;2022-09-29T13:41:32;1.70;;;1.45;;
14883;SDS011;7534;50.762;7.000;2022-09-29T13:44:18;1.40;;;1.30;;
14883;SDS011;7534;50.762;7.000;2022-09-29T13:46:47;1.33;;;1.23;;
14883;SDS011;7534;50.762;7.000;2022-09-29T13:49:15;1.45;;;1.20;;
14883;SDS011;7534;50.762;7.000;2022-09-29T13:51:56;6.45;;;3.65;;
14883;SDS011;7534;50.762;7.000;2022-09-29T13:54:34;1.30;;;1.20;;
14883;SDS011;7534;50.762;7.000;2022-09-29T13:57:19;1.58;;;1.40;;
14883;SDS011;7534;50.762;7.000;2022-09-29T14:02:59;2.10;;;1.40;;
14883;SDS011;7534;50.762;7.000;2022-09-29T14:08:24;1.77;;;1.25;;
14883;SDS011;7534;50.762;7.000;2022-09-29T14:11:04;2.08;;;1.35;;
14883;SDS011;7534;50.762;7.000;2022-09-29T14:14:29;2.92;;;1.50;;
14883;SDS011;7534;50.762;7.000;2022-09-29T14:16:53;2.05;;;1.40;;
14883;SDS011;7534;50.762;7.000;2022-09-29T14:24:54;2.10;;;1.50;;
14883;SDS011;7534;50.762;7.000;2022-09-29T14:27:31;4.53;;;1.55;;
14883;SDS011;7534;50.762;7.000;2022-09-29T14:38:44;2.10;;;1.48;;
14883;SDS011;7534;50.762;7.000;2022-09-29T14:41:26;2.63;;;1.70;;
14883;SDS011;7534;50.762;7.000;2022-09-29T14:44:00;1.98;;;1.63;;
14883;SDS011;7534;50.762;7.000;2022-09-29T14:53:21;2.33;;;1.73;;
14883;SDS011;7534;50.762;7.000;2022-09-29T14:56:07;1.77;;;1.20;;
14883;SDS011;7534;50.762;7.000;2022-09-29T15:01:39;2.07;;;1.30;;
14883;SDS011;7534;50.762;7.000;2022-09-29T15:04:43;2.40;;;1.20;;
14883;SDS011;7534;50.762;7.000;2022-09-29T15:07:32;2.23;;;1.50;;
14883;SDS011;7534;50.762;7.000;2022-09-29T15:10:05;1.37;;;1.27;;
14883;SDS011;7534;50.762;7.000;2022-09-29T15:16:02;2.30;;;1.60;;
14883;SDS011;7534;50.762;7.000;2022-09-29T15:21:40;4.33;;;1.90;;
14883;SDS011;7534;50.762;7.000;2022-09-29T15:27:00;4.30;;;2.00;;
14883;SDS011;7534;50.762;7.000;2022-09-29T15:29:30;3.10;;;1.90;;
14883;SDS011;7534;50.762;7.000;2022-09-29T15:31:56;2.30;;;1.70;;
14883;SDS011;7534;50.762;7.000;2022-09-29T15:34:23;3.20;;;1.70;;
14883;SDS011;7534;50.762;7.000;2022-09-29T15:36:50;3.13;;;1.83;;
14883;SDS011;7534;50.762;7.000;2022-09-29T15:42:02;2.30;;;1.50;;
14883;SDS011;7534;50.762;7.000;2022-09-29T15:44:39;4.83;;;2.03;;
14883;SDS011;7534;50.762;7.000;2022-09-29T15:47:28;2.00;;;1.80;;
14883;SDS011;7534;50.762;7.000;2022-09-29T15:50:04;1.93;;;1.50;;
14883;SDS011;7534;50.762;7.000;2022-09-29T15:52:50;2.63;;;1.57;;
14883;SDS011;7534;50.762;7.000;2022-09-29T15:55:17;1.63;;;1.50;;
14883;SDS011;7534;50.762;7.000;2022-09-29T15:57:46;2.57;;;1.67;;
14883;SDS011;7534;50.762;7.000;2022-09-29T16:02:50;1.77;;;1.60;;
14883;SDS011;7534;50.762;7.000;2022-09-29T16:05:33;2.23;;;1.93;;
14883;SDS011;7534;50.762;7.000;2022-09-29T16:08:22;3.33;;;1.70;;
14883;SDS011;7534;50.762;7.000;2022-09-29T16:11:15;2.80;;;1.93;;
14883;SDS011;7534;50.762;7.000;2022-09-29T16:13:57;2.40;;;1.90;;
14883;SDS011;7534;50.762;7.000;2022-09-29T16:16:32;2.50;;;1.57;;
14883;SDS011;7534;50.762;7.000;2022-09-29T16:19:06;2.70;;;2.17;;
14883;SDS011;7534;50.762;7.000;2022-09-29T16:21:48;3.47;;;2.20;;
14883;SDS011;7534;50.762;7.000;2022-09-29T16:24:20;2.83;;;2.23;;
14883;SDS011;7534;50.762;7.000;2022-09-29T16:26:55;2.43;;;2.03;;
14883;SDS011;7534;50.762;7.000;2022-09-29T16:29:29;2.80;;;1.97;;
14883;SDS011;7534;50.762;7.000;2022-09-29T16:40:45;2.20;;;1.60;;
14883;SDS011;7534;50.762;7.000;2022-09-29T16:43:21;1.83;;;1.50;;
14883;SDS011;7534;50.762;7.000;2022-09-29T16:45:58;1.93;;;1.60;;
14883;SDS011;7534;50.762;7.000;2022-09-29T16:48:28;1.80;;;1.60;;
14883;SDS011;7534;50.762;7.000;2022-09-29T16:51:01;1.60;;;1.50;;
14883;SDS011;7534;50.762;7.000;2022-09-29T16:53:36;2.47;;;1.70;;
14883;SDS011;7534;50.762;7.000;2022-09-29T16:56:07;2.00;;;1.90;;
14883;SDS011;7534;50.762;7.000;2022-09-29T16:59:11;2.80;;;2.07;;
14883;SDS011;7534;50.762;7.000;2022-09-29T17:01:41;2.00;;;1.80;;
14883;SDS011;7534;50.762;7.000;2022-09-29T17:04:09;2.53;;;2.27;;
14883;SDS011;7534;50.762;7.000;2022-09-29T17:06:35;2.83;;;2.60;;
14883;SDS011;7534;50.762;7.000;2022-09-29T17:09:05;3.30;;;2.80;;
14883;SDS011;7534;50.762;7.000;2022-09-29T17:11:31;4.83;;;3.20;;
14883;SDS011;7534;50.762;7.000;2022-09-29T17:13:56;3.23;;;2.50;;
14883;SDS011;7534;50.762;7.000;2022-09-29T17:16:23;2.00;;;1.90;;
14883;SDS011;7534;50.762;7.000;2022-09-29T17:19:00;2.20;;;2.00;;
14883;SDS011;7534;50.762;7.000;2022-09-29T17:21:30;3.73;;;1.93;;
14883;SDS011;7534;50.762;7.000;2022-09-29T17:23:57;4.27;;;2.30;;
14883;SDS011;7534;50.762;7.000;2022-09-29T17:26:25;2.33;;;2.13;;
14883;SDS011;7534;50.762;7.000;2022-09-29T17:29:22;2.30;;;2.10;;
14883;SDS011;7534;50.762;7.000;2022-09-29T17:31:48;2.27;;;2.03;;
14883;SDS011;7534;50.762;7.000;2022-09-29T17:34:15;2.30;;;2.10;;
14883;SDS011;7534;50.762;7.000;2022-09-29T17:36:41;3.60;;;1.97;;
14883;SDS011;7534;50.762;7.000;2022-09-29T17:39:10;4.63;;;3.27;;
14883;SDS011;7534;50.762;7.000;2022-09-29T17:41:35;4.43;;;3.00;;
14883;SDS011;7534;50.762;7.000;2022-09-29T17:44:01;3.07;;;2.60;;
14883;SDS011;7534;50.762;7.000;2022-09-29T17:46:33;3.47;;;2.30;;
14883;SDS011;7534;50.762;7.000;2022-09-29T17:49:04;2.97;;;2.40;;
14883;SDS011;7534;50.762;7.000;2022-09-29T17:51:38;2.73;;;2.53;;
14883;SDS011;7534;50.762;7.000;2022-09-29T17:54:07;2.60;;;2.30;;
14883;SDS011;7534;50.762;7.000;2022-09-29T17:56:33;2.87;;;2.57;;
14883;SDS011;7534;50.762;7.000;2022-09-29T17:59:06;3.73;;;2.70;;
14883;SDS011;7534;50.762;7.000;2022-09-29T18:01:34;2.90;;;2.60;;
14883;SDS011;7534;50.762;7.000;2022-09-29T18:04:01;3.13;;;2.70;;
14883;SDS011;7534;50.762;7.000;2022-09-29T18:06:28;3.57;;;2.70;;
14883;SDS011;7534;50.762;7.000;2022-09-29T18:08:56;4.23;;;3.00;;
14883;SDS011;7534;50.762;7.000;2022-09-29T18:11:24;3.20;;;2.90;;
14883;SDS011;7534;50.762;7.000;2022-09-29T18:13:50;3.30;;;2.97;;
14883;SDS011;7534;50.762;7.000;2022-09-29T18:16:18;3.33;;;3.03;;
14883;SDS011;7534;50.762;7.000;2022-09-29T18:18:47;4.10;;;3.30;;
14883;SDS011;7534;50.762;7.000;2022-09-29T18:21:15;4.40;;;3.10;;
14883;SDS011;7534;50.762;7.000;2022-09-29T18:23:42;3.40;;;3.10;;
14883;SDS011;7534;50.762;7.000;2022-09-29T18:26:09;4.10;;;3.70;;
14883;SDS011;7534;50.762;7.000;2022-09-29T18:28:36;4.60;;;3.60;;
14883;SDS011;7534;50.762;7.000;2022-09-29T18:31:20;3.40;;;3.10;;
14883;SDS011;7534;50.762;7.000;2022-09-29T18:33:52;3.40;;;3.10;;
14883;SDS011;7534;50.762;7.000;2022-09-29T18:36:19;3.60;;;3.30;;
14883;SDS011;7534;50.762;7.000;2022-09-29T18:38:46;4.27;;;3.50;;
14883;SDS011;7534;50.762;7.000;2022-09-29T18:41:13;3.57;;;3.27;;
14883;SDS011;7534;50.762;7.000;2022-09-29T18:43:45;3.73;;;3.03;;
14883;SDS011;7534;50.762;7.000;2022-09-29T18:46:12;4.07;;;3.10;;
14883;SDS011;7534;50.762;7.000;2022-09-29T18:48:39;4.77;;;3.40;;
14883;SDS011;7534;50.762;7.000;2022-09-29T18:51:06;3.63;;;3.17;;
14883;SDS011;7534;50.762;7.000;2022-09-29T18:53:32;3.50;;;3.20;;